sensor_id;sensor_type;location;lat;lon;timestamp;P1;durP1;ratioP1;P2;durP2;ratioP2
73693;SDS011;61997;53.974;11.670;2023-03-12T00:01:40;8.02;;;4.68;;
73693;SDS011;61997;53.974;11.670;2023-03-12T00:04:08;7.93;;;4.05;;
73693;SDS011;61997;53.974;11.670;2023-03-12T00:06:34;7.50;;;4.55;;
73693;SDS011;61997;53.974;11.670;2023-03-12T00:09:01;8.93;;;4.53;;
73693;SDS011;61997;53.974;11.670;2023-03-12T00:11:28;7.55;;;3.88;;
73693;SDS011;61997;53.974;11.670;2023-03-12T00:13:57;8.45;;;4.65;;
73693;SDS011;61997;53.974;11.670;2023-03-12T00:16:25;7.45;;;4.30;;
73693;SDS011;61997;53.974;11.670;2023-03-12T00:21:26;6.95;;;3.97;;
73693;SDS011;61997;53.974;11.670;2023-03-12T00:23:53;9.55;;;5.20;;
73693;SDS011;61997;53.974;11.670;2023-03-12T00:26:19;10.25;;;4.72;;
73693;SDS011;61997;53.974;11.670;2023-03-12T00:28:50;9.05;;;4.38;;
73693;SDS011;61997;53.974;11.670;2023-03-12T00:31:18;7.75;;;4.80;;
73693;SDS011;61997;53.974;11.670;2023-03-12T00:33:48;7.18;;;4.47;;
73693;SDS011;61997;53.974;11.670;2023-03-12T00:36:15;8.02;;;4.60;;
73693;SDS011;61997;53.974;11.670;2023-03-12T00:38:41;13.40;;;6.30;;
73693;SDS011;61997;53.974;11.670;2023-03-12T00:41:07;13.05;;;6.93;;
73693;SDS011;61997;53.974;11.670;2023-03-12T00:43:34;13.45;;;7.68;;
73693;SDS011;61997;53.974;11.670;2023-03-12T00:46:00;13.40;;;8.13;;
73693;SDS011;61997;53.974;11.670;2023-03-12T00:48:26;15.50;;;8.30;;
73693;SDS011;61997;53.974;11.670;2023-03-12T00:50:52;16.33;;;8.45;;
73693;SDS011;61997;53.974;11.670;2023-03-12T00:53:17;19.40;;;8.68;;
73693;SDS011;61997;53.974;11.670;2023-03-12T00:55:43;15.75;;;9.68;;
73693;SDS011;61997;53.974;11.670;2023-03-12T00:58:10;18.10;;;9.70;;
73693;SDS011;61997;53.974;11.670;2023-03-12T01:00:36;17.58;;;9.02;;
73693;SDS011;61997;53.974;11.670;2023-03-12T01:03:03;19.33;;;9.80;;
73693;SDS011;61997;53.974;11.670;2023-03-12T01:05:31;20.05;;;9.63;;
73693;SDS011;61997;53.974;11.670;2023-03-12T01:08:02;18.42;;;9.77;;
73693;SDS011;61997;53.974;11.670;2023-03-12T01:10:28;15.45;;;9.65;;
73693;SDS011;61997;53.974;11.670;2023-03-12T01:12:54;16.70;;;9.88;;
73693;SDS011;61997;53.974;11.670;2023-03-12T01:15:19;16.95;;;9.90;;
73693;SDS011;61997;53.974;11.670;2023-03-12T01:17:44;20.05;;;9.88;;
73693;SDS011;61997;53.974;11.670;2023-03-12T01:20:10;19.95;;;11.13;;
73693;SDS011;61997;53.974;11.670;2023-03-12T01:22:37;18.90;;;9.45;;
73693;SDS011;61997;53.974;11.670;2023-03-12T01:25:02;16.33;;;9.40;;
73693;SDS011;61997;53.974;11.670;2023-03-12T01:27:28;14.20;;;8.73;;
73693;SDS011;61997;53.974;11.670;2023-03-12T01:29:53;16.38;;;9.52;;
73693;SDS011;61997;53.974;11.670;2023-03-12T01:32:19;19.08;;;10.02;;
73693;SDS011;61997;53.974;11.670;2023-03-12T01:34:45;17.90;;;10.00;;
73693;SDS011;61997;53.974;11.670;2023-03-12T01:37:10;16.80;;;8.75;;
73693;SDS011;61997;53.974;11.670;2023-03-12T01:39:36;20.65;;;9.60;;
73693;SDS011;61997;53.974;11.670;2023-03-12T01:42:01;16.77;;;9.55;;
73693;SDS011;61997;53.974;11.670;2023-03-12T01:44:27;16.30;;;8.77;;
73693;SDS011;61997;53.974;11.670;2023-03-12T01:46:53;16.90;;;8.85;;
73693;SDS011;61997;53.974;11.670;2023-03-12T01:49:25;18.80;;;9.07;;
73693;SDS011;61997;53.974;11.670;2023-03-12T01:51:58;17.42;;;8.68;;
73693;SDS011;61997;53.974;11.670;2023-03-12T01:54:29;14.65;;;8.82;;
73693;SDS011;61997;53.974;11.670;2023-03-12T01:57:07;18.48;;;9.27;;
73693;SDS011;61997;53.974;11.670;2023-03-12T01:59:39;16.23;;;8.82;;
73693;SDS011;61997;53.974;11.670;2023-03-12T02:02:10;15.77;;;8.95;;
73693;SDS011;61997;53.974;11.670;2023-03-12T02:04:36;14.90;;;8.15;;
73693;SDS011;61997;53.974;11.670;2023-03-12T02:07:04;13.98;;;8.48;;
73693;SDS011;61997;53.974;11.670;2023-03-12T02:09:35;15.50;;;8.65;;
73693;SDS011;61997;53.974;11.670;2023-03-12T02:12:02;16.70;;;8.57;;
73693;SDS011;61997;53.974;11.670;2023-03-12T02:14:28;16.35;;;7.85;;
73693;SDS011;61997;53.974;11.670;2023-03-12T02:16:54;17.60;;;7.88;;
73693;SDS011;61997;53.974;11.670;2023-03-12T02:22:05;15.48;;;8.55;;
73693;SDS011;61997;53.974;11.670;2023-03-12T02:27:40;14.10;;;7.22;;
73693;SDS011;61997;53.974;11.670;2023-03-12T02:30:06;12.88;;;6.90;;
73693;SDS011;61997;53.974;11.670;2023-03-12T02:32:33;12.98;;;7.45;;
73693;SDS011;61997;53.974;11.670;2023-03-12T02:35:00;14.18;;;7.15;;
73693;SDS011;61997;53.974;11.670;2023-03-12T02:37:27;14.40;;;7.13;;
73693;SDS011;61997;53.974;11.670;2023-03-12T02:39:55;13.40;;;7.57;;
73693;SDS011;61997;53.974;11.670;2023-03-12T02:42:24;15.27;;;8.30;;
73693;SDS011;61997;53.974;11.670;2023-03-12T02:44:50;15.38;;;7.90;;
73693;SDS011;61997;53.974;11.670;2023-03-12T02:47:16;14.00;;;7.03;;
73693;SDS011;61997;53.974;11.670;2023-03-12T02:49:41;12.48;;;6.57;;
73693;SDS011;61997;53.974;11.670;2023-03-12T02:52:07;14.23;;;7.40;;
73693;SDS011;61997;53.974;11.670;2023-03-12T02:54:34;12.13;;;7.20;;
73693;SDS011;61997;53.974;11.670;2023-03-12T02:57:00;14.90;;;7.15;;
73693;SDS011;61997;53.974;11.670;2023-03-12T02:59:25;12.88;;;5.90;;
73693;SDS011;61997;53.974;11.670;2023-03-12T03:01:52;15.35;;;6.22;;
73693;SDS011;61997;53.974;11.670;2023-03-12T03:04:18;14.10;;;6.20;;
73693;SDS011;61997;53.974;11.670;2023-03-12T03:06:44;10.75;;;5.82;;
73693;SDS011;61997;53.974;11.670;2023-03-12T03:09:11;12.20;;;7.00;;
73693;SDS011;61997;53.974;11.670;2023-03-12T03:11:37;12.07;;;6.53;;
73693;SDS011;61997;53.974;11.670;2023-03-12T03:14:02;12.80;;;6.35;;
73693;SDS011;61997;53.974;11.670;2023-03-12T03:16:28;8.95;;;5.38;;
73693;SDS011;61997;53.974;11.670;2023-03-12T03:18:54;12.82;;;6.70;;
73693;SDS011;61997;53.974;11.670;2023-03-12T03:21:19;12.98;;;5.50;;
73693;SDS011;61997;53.974;11.670;2023-03-12T03:23:46;11.27;;;6.18;;
73693;SDS011;61997;53.974;11.670;2023-03-12T03:26:13;8.65;;;5.85;;
73693;SDS011;61997;53.974;11.670;2023-03-12T03:28:39;10.23;;;5.43;;
73693;SDS011;61997;53.974;11.670;2023-03-12T03:31:04;11.45;;;6.45;;
73693;SDS011;61997;53.974;11.670;2023-03-12T03:33:32;12.18;;;6.15;;
73693;SDS011;61997;53.974;11.670;2023-03-12T03:35:58;12.05;;;5.88;;
73693;SDS011;61997;53.974;11.670;2023-03-12T03:38:25;12.15;;;6.10;;
73693;SDS011;61997;53.974;11.670;2023-03-12T03:40:52;10.07;;;5.32;;
73693;SDS011;61997;53.974;11.670;2023-03-12T03:43:17;12.40;;;6.13;;
73693;SDS011;61997;53.974;11.670;2023-03-12T03:45:43;10.05;;;5.22;;
73693;SDS011;61997;53.974;11.670;2023-03-12T03:48:09;7.95;;;4.57;;
73693;SDS011;61997;53.974;11.670;2023-03-12T03:50:35;9.23;;;5.32;;
73693;SDS011;61997;53.974;11.670;2023-03-12T03:53:01;9.07;;;5.07;;
73693;SDS011;61997;53.974;11.670;2023-03-12T03:55:27;9.23;;;5.07;;
73693;SDS011;61997;53.974;11.670;2023-03-12T03:57:52;10.70;;;4.68;;
73693;SDS011;61997;53.974;11.670;2023-03-12T04:00:18;9.73;;;5.68;;
73693;SDS011;61997;53.974;11.670;2023-03-12T04:02:43;10.70;;;4.97;;
73693;SDS011;61997;53.974;11.670;2023-03-12T04:05:09;6.82;;;4.80;;
73693;SDS011;61997;53.974;11.670;2023-03-12T04:07:35;8.43;;;4.75;;
73693;SDS011;61997;53.974;11.670;2023-03-12T04:10:01;9.60;;;4.72;;
73693;SDS011;61997;53.974;11.670;2023-03-12T04:12:27;6.22;;;4.30;;
73693;SDS011;61997;53.974;11.670;2023-03-12T04:14:53;9.27;;;5.00;;
73693;SDS011;61997;53.974;11.670;2023-03-12T04:17:19;8.32;;;4.28;;
73693;SDS011;61997;53.974;11.670;2023-03-12T04:19:44;7.82;;;4.85;;
73693;SDS011;61997;53.974;11.670;2023-03-12T04:22:09;12.73;;;5.43;;
73693;SDS011;61997;53.974;11.670;2023-03-12T04:24:35;8.57;;;4.43;;
73693;SDS011;61997;53.974;11.670;2023-03-12T04:27:00;9.43;;;4.60;;
73693;SDS011;61997;53.974;11.670;2023-03-12T04:29:26;7.70;;;4.20;;
73693;SDS011;61997;53.974;11.670;2023-03-12T04:31:51;7.63;;;4.22;;
73693;SDS011;61997;53.974;11.670;2023-03-12T04:34:17;10.25;;;4.70;;
73693;SDS011;61997;53.974;11.670;2023-03-12T04:36:42;8.80;;;4.63;;
73693;SDS011;61997;53.974;11.670;2023-03-12T04:39:09;6.88;;;4.15;;
73693;SDS011;61997;53.974;11.670;2023-03-12T04:41:35;8.40;;;4.65;;
73693;SDS011;61997;53.974;11.670;2023-03-12T04:44:01;12.93;;;4.80;;
73693;SDS011;61997;53.974;11.670;2023-03-12T04:46:27;7.85;;;4.05;;
73693;SDS011;61997;53.974;11.670;2023-03-12T04:48:53;6.72;;;3.80;;
73693;SDS011;61997;53.974;11.670;2023-03-12T04:51:18;8.82;;;4.18;;
73693;SDS011;61997;53.974;11.670;2023-03-12T04:53:44;8.93;;;4.80;;
73693;SDS011;61997;53.974;11.670;2023-03-12T04:56:09;6.13;;;4.00;;
73693;SDS011;61997;53.974;11.670;2023-03-12T04:58:34;8.35;;;4.53;;
73693;SDS011;61997;53.974;11.670;2023-03-12T05:01:00;8.57;;;3.85;;
73693;SDS011;61997;53.974;11.670;2023-03-12T05:03:26;6.90;;;3.97;;
73693;SDS011;61997;53.974;11.670;2023-03-12T05:05:51;9.40;;;4.65;;
73693;SDS011;61997;53.974;11.670;2023-03-12T05:08:17;6.68;;;4.30;;
73693;SDS011;61997;53.974;11.670;2023-03-12T05:10:42;8.70;;;4.03;;
73693;SDS011;61997;53.974;11.670;2023-03-12T05:13:14;9.27;;;3.72;;
73693;SDS011;61997;53.974;11.670;2023-03-12T05:15:41;8.10;;;3.80;;
73693;SDS011;61997;53.974;11.670;2023-03-12T05:18:07;8.43;;;3.90;;
73693;SDS011;61997;53.974;11.670;2023-03-12T05:20:32;7.55;;;3.80;;
73693;SDS011;61997;53.974;11.670;2023-03-12T05:22:57;8.30;;;4.35;;
73693;SDS011;61997;53.974;11.670;2023-03-12T05:25:23;8.93;;;4.25;;
73693;SDS011;61997;53.974;11.670;2023-03-12T05:27:48;8.07;;;4.95;;
73693;SDS011;61997;53.974;11.670;2023-03-12T05:30:13;7.57;;;4.43;;
73693;SDS011;61997;53.974;11.670;2023-03-12T05:32:39;7.43;;;4.35;;
73693;SDS011;61997;53.974;11.670;2023-03-12T05:35:04;10.45;;;3.88;;
73693;SDS011;61997;53.974;11.670;2023-03-12T05:37:30;6.47;;;4.18;;
73693;SDS011;61997;53.974;11.670;2023-03-12T05:39:55;6.43;;;3.70;;
73693;SDS011;61997;53.974;11.670;2023-03-12T05:42:21;6.75;;;3.50;;
73693;SDS011;61997;53.974;11.670;2023-03-12T05:44:48;7.20;;;3.72;;
73693;SDS011;61997;53.974;11.670;2023-03-12T05:47:15;8.75;;;4.05;;
73693;SDS011;61997;53.974;11.670;2023-03-12T05:49:40;7.63;;;3.45;;
73693;SDS011;61997;53.974;11.670;2023-03-12T05:52:06;8.27;;;4.25;;
73693;SDS011;61997;53.974;11.670;2023-03-12T05:54:32;6.82;;;3.58;;
73693;SDS011;61997;53.974;11.670;2023-03-12T05:56:57;7.97;;;3.88;;
73693;SDS011;61997;53.974;11.670;2023-03-12T05:59:23;7.28;;;3.85;;
73693;SDS011;61997;53.974;11.670;2023-03-12T06:01:49;6.00;;;3.40;;
73693;SDS011;61997;53.974;11.670;2023-03-12T06:04:14;5.60;;;3.42;;
73693;SDS011;61997;53.974;11.670;2023-03-12T06:06:39;7.95;;;3.83;;
73693;SDS011;61997;53.974;11.670;2023-03-12T06:09:05;7.00;;;3.20;;
73693;SDS011;61997;53.974;11.670;2023-03-12T06:11:30;5.85;;;3.78;;
73693;SDS011;61997;53.974;11.670;2023-03-12T06:13:57;6.03;;;3.10;;
73693;SDS011;61997;53.974;11.670;2023-03-12T06:16:24;5.68;;;3.58;;
73693;SDS011;61997;53.974;11.670;2023-03-12T06:18:55;7.95;;;3.55;;
73693;SDS011;61997;53.974;11.670;2023-03-12T06:21:23;7.88;;;3.55;;
73693;SDS011;61997;53.974;11.670;2023-03-12T06:23:50;8.25;;;3.63;;
73693;SDS011;61997;53.974;11.670;2023-03-12T06:26:16;7.28;;;3.60;;
73693;SDS011;61997;53.974;11.670;2023-03-12T06:28:43;5.85;;;3.35;;
73693;SDS011;61997;53.974;11.670;2023-03-12T06:31:10;6.65;;;3.30;;
73693;SDS011;61997;53.974;11.670;2023-03-12T06:33:36;6.50;;;2.90;;
73693;SDS011;61997;53.974;11.670;2023-03-12T06:36:02;6.97;;;3.00;;
73693;SDS011;61997;53.974;11.670;2023-03-12T06:38:29;5.00;;;2.80;;
73693;SDS011;61997;53.974;11.670;2023-03-12T06:41:07;6.05;;;3.30;;
73693;SDS011;61997;53.974;11.670;2023-03-12T06:43:37;6.95;;;3.47;;
73693;SDS011;61997;53.974;11.670;2023-03-12T06:46:04;6.40;;;3.35;;
73693;SDS011;61997;53.974;11.670;2023-03-12T06:48:31;4.38;;;2.83;;
73693;SDS011;61997;53.974;11.670;2023-03-12T06:51:00;7.68;;;3.60;;
73693;SDS011;61997;53.974;11.670;2023-03-12T06:53:26;5.88;;;3.08;;
73693;SDS011;61997;53.974;11.670;2023-03-12T06:55:52;6.15;;;3.00;;
73693;SDS011;61997;53.974;11.670;2023-03-12T06:58:17;6.85;;;3.13;;
73693;SDS011;61997;53.974;11.670;2023-03-12T07:00:43;4.43;;;2.55;;
73693;SDS011;61997;53.974;11.670;2023-03-12T07:03:08;6.28;;;2.95;;
73693;SDS011;61997;53.974;11.670;2023-03-12T07:05:34;4.15;;;2.30;;
73693;SDS011;61997;53.974;11.670;2023-03-12T07:07:59;4.05;;;2.20;;
73693;SDS011;61997;53.974;11.670;2023-03-12T07:10:25;6.63;;;3.00;;
73693;SDS011;61997;53.974;11.670;2023-03-12T07:12:54;5.72;;;2.85;;
73693;SDS011;61997;53.974;11.670;2023-03-12T07:15:20;6.00;;;3.03;;
73693;SDS011;61997;53.974;11.670;2023-03-12T07:17:46;4.43;;;2.40;;
73693;SDS011;61997;53.974;11.670;2023-03-12T07:20:11;6.00;;;2.40;;
73693;SDS011;61997;53.974;11.670;2023-03-12T07:22:37;5.32;;;2.10;;
73693;SDS011;61997;53.974;11.670;2023-03-12T07:25:02;4.90;;;2.50;;
73693;SDS011;61997;53.974;11.670;2023-03-12T07:27:28;4.22;;;2.45;;
73693;SDS011;61997;53.974;11.670;2023-03-12T07:29:54;6.30;;;2.72;;
73693;SDS011;61997;53.974;11.670;2023-03-12T07:32:19;4.47;;;2.78;;
73693;SDS011;61997;53.974;11.670;2023-03-12T07:34:45;4.38;;;2.78;;
73693;SDS011;61997;53.974;11.670;2023-03-12T07:37:10;4.97;;;2.50;;
73693;SDS011;61997;53.974;11.670;2023-03-12T07:39:37;5.13;;;2.38;;
73693;SDS011;61997;53.974;11.670;2023-03-12T07:42:03;4.47;;;2.55;;
73693;SDS011;61997;53.974;11.670;2023-03-12T07:44:28;5.10;;;2.60;;
73693;SDS011;61997;53.974;11.670;2023-03-12T07:46:54;5.45;;;2.65;;
73693;SDS011;61997;53.974;11.670;2023-03-12T07:49:19;4.25;;;2.60;;
73693;SDS011;61997;53.974;11.670;2023-03-12T07:51:45;3.75;;;2.30;;
73693;SDS011;61997;53.974;11.670;2023-03-12T07:54:10;3.60;;;1.95;;
73693;SDS011;61997;53.974;11.670;2023-03-12T07:56:36;3.83;;;2.35;;
73693;SDS011;61997;53.974;11.670;2023-03-12T07:59:01;5.47;;;2.88;;
73693;SDS011;61997;53.974;11.670;2023-03-12T08:01:27;4.35;;;2.10;;
73693;SDS011;61997;53.974;11.670;2023-03-12T08:03:59;6.28;;;3.05;;
73693;SDS011;61997;53.974;11.670;2023-03-12T08:06:25;5.07;;;2.10;;
73693;SDS011;61997;53.974;11.670;2023-03-12T08:08:50;5.20;;;2.67;;
73693;SDS011;61997;53.974;11.670;2023-03-12T08:11:16;4.57;;;2.15;;
73693;SDS011;61997;53.974;11.670;2023-03-12T08:13:41;4.65;;;1.90;;
73693;SDS011;61997;53.974;11.670;2023-03-12T08:16:07;4.68;;;2.20;;
73693;SDS011;61997;53.974;11.670;2023-03-12T08:18:33;5.80;;;2.03;;
73693;SDS011;61997;53.974;11.670;2023-03-12T08:20:58;3.90;;;2.05;;
73693;SDS011;61997;53.974;11.670;2023-03-12T08:23:24;3.25;;;2.05;;
73693;SDS011;61997;53.974;11.670;2023-03-12T08:25:51;4.32;;;1.90;;
73693;SDS011;61997;53.974;11.670;2023-03-12T08:28:19;3.67;;;2.05;;
73693;SDS011;61997;53.974;11.670;2023-03-12T08:30:46;4.30;;;2.22;;
73693;SDS011;61997;53.974;11.670;2023-03-12T08:33:15;3.67;;;1.92;;
73693;SDS011;61997;53.974;11.670;2023-03-12T08:35:41;3.70;;;2.10;;
73693;SDS011;61997;53.974;11.670;2023-03-12T08:38:06;4.32;;;2.20;;
73693;SDS011;61997;53.974;11.670;2023-03-12T08:40:32;6.15;;;2.42;;
73693;SDS011;61997;53.974;11.670;2023-03-12T08:42:57;5.32;;;2.15;;
73693;SDS011;61997;53.974;11.670;2023-03-12T08:45:23;5.22;;;2.33;;
73693;SDS011;61997;53.974;11.670;2023-03-12T08:47:48;4.57;;;1.90;;
73693;SDS011;61997;53.974;11.670;2023-03-12T08:50:14;3.83;;;1.85;;
73693;SDS011;61997;53.974;11.670;2023-03-12T08:52:41;3.35;;;1.92;;
73693;SDS011;61997;53.974;11.670;2023-03-12T08:55:08;4.20;;;2.08;;
73693;SDS011;61997;53.974;11.670;2023-03-12T08:57:34;5.22;;;2.10;;
73693;SDS011;61997;53.974;11.670;2023-03-12T09:00:00;3.03;;;1.52;;
73693;SDS011;61997;53.974;11.670;2023-03-12T09:02:25;3.42;;;1.60;;
73693;SDS011;61997;53.974;11.670;2023-03-12T09:04:52;3.40;;;1.67;;
73693;SDS011;61997;53.974;11.670;2023-03-12T09:07:19;3.60;;;1.98;;
73693;SDS011;61997;53.974;11.670;2023-03-12T09:09:46;4.32;;;2.10;;
73693;SDS011;61997;53.974;11.670;2023-03-12T09:12:11;3.47;;;1.63;;
73693;SDS011;61997;53.974;11.670;2023-03-12T09:14:37;4.30;;;2.47;;
73693;SDS011;61997;53.974;11.670;2023-03-12T09:17:03;3.88;;;1.75;;
73693;SDS011;61997;53.974;11.670;2023-03-12T09:19:28;3.05;;;1.75;;
73693;SDS011;61997;53.974;11.670;2023-03-12T09:21:55;3.65;;;2.15;;
73693;SDS011;61997;53.974;11.670;2023-03-12T09:24:20;5.40;;;2.33;;
73693;SDS011;61997;53.974;11.670;2023-03-12T09:26:46;5.65;;;2.17;;
73693;SDS011;61997;53.974;11.670;2023-03-12T09:29:11;5.47;;;1.98;;
73693;SDS011;61997;53.974;11.670;2023-03-12T09:31:36;4.15;;;2.10;;
73693;SDS011;61997;53.974;11.670;2023-03-12T09:34:02;3.75;;;2.00;;
73693;SDS011;61997;53.974;11.670;2023-03-12T09:36:28;5.45;;;2.33;;
73693;SDS011;61997;53.974;11.670;2023-03-12T09:38:54;4.45;;;2.63;;
73693;SDS011;61997;53.974;11.670;2023-03-12T09:41:21;6.47;;;2.60;;
73693;SDS011;61997;53.974;11.670;2023-03-12T09:43:49;6.78;;;2.80;;
73693;SDS011;61997;53.974;11.670;2023-03-12T09:46:19;6.43;;;3.03;;
73693;SDS011;61997;53.974;11.670;2023-03-12T09:48:48;7.35;;;2.75;;
73693;SDS011;61997;53.974;11.670;2023-03-12T09:51:22;6.43;;;3.53;;
73693;SDS011;61997;53.974;11.670;2023-03-12T09:57:13;8.68;;;3.22;;
73693;SDS011;61997;53.974;11.670;2023-03-12T09:59:42;8.27;;;3.47;;
73693;SDS011;61997;53.974;11.670;2023-03-12T10:02:21;6.93;;;3.63;;
73693;SDS011;61997;53.974;11.670;2023-03-12T10:04:51;7.57;;;4.07;;
73693;SDS011;61997;53.974;11.670;2023-03-12T10:07:27;6.70;;;3.45;;
73693;SDS011;61997;53.974;11.670;2023-03-12T10:24:06;9.23;;;3.85;;
73693;SDS011;61997;53.974;11.670;2023-03-12T10:26:37;7.65;;;3.70;;
73693;SDS011;61997;53.974;11.670;2023-03-12T10:32:01;8.07;;;3.17;;
73693;SDS011;61997;53.974;11.670;2023-03-12T10:34:49;6.53;;;3.28;;
73693;SDS011;61997;53.974;11.670;2023-03-12T10:39:57;8.90;;;3.90;;
73693;SDS011;61997;53.974;11.670;2023-03-12T10:42:25;8.07;;;4.15;;
73693;SDS011;61997;53.974;11.670;2023-03-12T10:44:57;6.05;;;3.28;;
73693;SDS011;61997;53.974;11.670;2023-03-12T10:47:38;8.10;;;3.90;;
73693;SDS011;61997;53.974;11.670;2023-03-12T10:52:39;9.75;;;3.88;;
73693;SDS011;61997;53.974;11.670;2023-03-12T10:55:24;7.38;;;4.22;;
73693;SDS011;61997;53.974;11.670;2023-03-12T10:57:53;6.45;;;3.88;;
73693;SDS011;61997;53.974;11.670;2023-03-12T11:00:21;8.23;;;4.45;;
73693;SDS011;61997;53.974;11.670;2023-03-12T11:05:25;8.70;;;3.90;;
73693;SDS011;61997;53.974;11.670;2023-03-12T11:07:54;8.50;;;4.10;;
73693;SDS011;61997;53.974;11.670;2023-03-12T11:10:24;9.07;;;3.47;;
73693;SDS011;61997;53.974;11.670;2023-03-12T11:12:53;8.13;;;3.60;;
73693;SDS011;61997;53.974;11.670;2023-03-12T11:15:22;8.65;;;4.07;;
73693;SDS011;61997;53.974;11.670;2023-03-12T11:20:26;9.20;;;4.10;;
73693;SDS011;61997;53.974;11.670;2023-03-12T11:22:54;7.68;;;4.25;;
73693;SDS011;61997;53.974;11.670;2023-03-12T11:25:26;6.97;;;3.80;;
73693;SDS011;61997;53.974;11.670;2023-03-12T11:27:53;7.50;;;4.15;;
73693;SDS011;61997;53.974;11.670;2023-03-12T11:30:39;8.40;;;4.60;;
73693;SDS011;61997;53.974;11.670;2023-03-12T11:33:07;7.35;;;4.07;;
73693;SDS011;61997;53.974;11.670;2023-03-12T11:35:57;8.32;;;4.78;;
73693;SDS011;61997;53.974;11.670;2023-03-12T11:38:47;10.23;;;4.53;;
73693;SDS011;61997;53.974;11.670;2023-03-12T11:52:05;9.40;;;3.83;;
73693;SDS011;61997;53.974;11.670;2023-03-12T11:55:01;10.43;;;4.95;;
73693;SDS011;61997;53.974;11.670;2023-03-12T12:01:01;6.45;;;4.18;;
73693;SDS011;61997;53.974;11.670;2023-03-12T12:03:44;10.10;;;4.50;;
73693;SDS011;61997;53.974;11.670;2023-03-12T12:06:37;9.48;;;4.50;;
73693;SDS011;61997;53.974;11.670;2023-03-12T12:12:05;9.52;;;4.13;;
73693;SDS011;61997;53.974;11.670;2023-03-12T12:14:39;8.50;;;5.13;;
73693;SDS011;61997;53.974;11.670;2023-03-12T12:22:56;7.82;;;4.13;;
73693;SDS011;61997;53.974;11.670;2023-03-12T12:31:11;9.38;;;4.93;;
73693;SDS011;61997;53.974;11.670;2023-03-12T12:33:49;8.07;;;4.40;;
73693;SDS011;61997;53.974;11.670;2023-03-12T12:36:17;10.40;;;5.22;;
73693;SDS011;61997;53.974;11.670;2023-03-12T12:38:43;10.25;;;6.25;;
73693;SDS011;61997;53.974;11.670;2023-03-12T12:41:52;9.65;;;5.80;;
73693;SDS011;61997;53.974;11.670;2023-03-12T12:44:20;11.30;;;5.65;;
73693;SDS011;61997;53.974;11.670;2023-03-12T12:46:51;14.38;;;8.30;;
73693;SDS011;61997;53.974;11.670;2023-03-12T12:52:02;18.30;;;9.90;;
73693;SDS011;61997;53.974;11.670;2023-03-12T12:54:34;20.85;;;10.48;;
73693;SDS011;61997;53.974;11.670;2023-03-12T13:02:16;27.25;;;14.48;;
73693;SDS011;61997;53.974;11.670;2023-03-12T13:04:54;28.58;;;13.48;;
73693;SDS011;61997;53.974;11.670;2023-03-12T13:09:52;25.63;;;15.18;;
73693;SDS011;61997;53.974;11.670;2023-03-12T13:12:31;27.85;;;14.57;;
73693;SDS011;61997;53.974;11.670;2023-03-12T13:20:30;28.77;;;15.60;;
73693;SDS011;61997;53.974;11.670;2023-03-12T13:28:34;29.50;;;16.48;;
73693;SDS011;61997;53.974;11.670;2023-03-12T13:36:42;28.67;;;16.58;;
73693;SDS011;61997;53.974;11.670;2023-03-12T13:41:48;33.72;;;16.63;;
73693;SDS011;61997;53.974;11.670;2023-03-12T13:49:23;38.17;;;18.83;;
73693;SDS011;61997;53.974;11.670;2023-03-12T13:51:53;33.35;;;19.80;;
73693;SDS011;61997;53.974;11.670;2023-03-12T13:54:45;39.40;;;22.23;;
73693;SDS011;61997;53.974;11.670;2023-03-12T14:00:02;49.70;;;22.77;;
73693;SDS011;61997;53.974;11.670;2023-03-12T14:02:34;56.53;;;27.65;;
73693;SDS011;61997;53.974;11.670;2023-03-12T14:05:03;60.40;;;29.42;;
73693;SDS011;61997;53.974;11.670;2023-03-12T14:07:50;58.25;;;28.13;;
73693;SDS011;61997;53.974;11.670;2023-03-12T14:13:34;58.72;;;31.02;;
73693;SDS011;61997;53.974;11.670;2023-03-12T14:16:13;57.78;;;32.63;;
73693;SDS011;61997;53.974;11.670;2023-03-12T14:18:50;64.70;;;33.03;;
73693;SDS011;61997;53.974;11.670;2023-03-12T14:21:16;70.43;;;34.45;;
73693;SDS011;61997;53.974;11.670;2023-03-12T14:23:45;75.65;;;36.65;;
73693;SDS011;61997;53.974;11.670;2023-03-12T14:26:16;70.85;;;36.50;;
73693;SDS011;61997;53.974;11.670;2023-03-12T14:28:51;80.93;;;38.83;;
73693;SDS011;61997;53.974;11.670;2023-03-12T14:31:22;78.00;;;38.60;;
73693;SDS011;61997;53.974;11.670;2023-03-12T14:36:20;75.28;;;40.30;;
73693;SDS011;61997;53.974;11.670;2023-03-12T14:38:48;76.32;;;38.38;;
73693;SDS011;61997;53.974;11.670;2023-03-12T14:41:28;86.30;;;41.63;;
73693;SDS011;61997;53.974;11.670;2023-03-12T14:44:03;82.70;;;40.42;;
73693;SDS011;61997;53.974;11.670;2023-03-12T14:47:02;78.65;;;38.35;;
73693;SDS011;61997;53.974;11.670;2023-03-12T14:49:28;79.05;;;39.78;;
73693;SDS011;61997;53.974;11.670;2023-03-12T14:51:55;78.60;;;40.10;;
73693;SDS011;61997;53.974;11.670;2023-03-12T14:54:22;80.55;;;42.13;;
73693;SDS011;61997;53.974;11.670;2023-03-12T14:56:49;75.20;;;37.97;;
73693;SDS011;61997;53.974;11.670;2023-03-12T14:59:28;81.13;;;39.33;;
73693;SDS011;61997;53.974;11.670;2023-03-12T15:01:57;80.95;;;38.78;;
73693;SDS011;61997;53.974;11.670;2023-03-12T15:04:28;74.88;;;39.15;;
73693;SDS011;61997;53.974;11.670;2023-03-12T15:06:56;74.47;;;38.70;;
73693;SDS011;61997;53.974;11.670;2023-03-12T15:09:29;73.97;;;38.75;;
73693;SDS011;61997;53.974;11.670;2023-03-12T15:11:59;78.97;;;38.22;;
73693;SDS011;61997;53.974;11.670;2023-03-12T15:14:27;70.50;;;36.70;;
73693;SDS011;61997;53.974;11.670;2023-03-12T15:16:53;73.28;;;37.00;;
73693;SDS011;61997;53.974;11.670;2023-03-12T15:19:20;69.50;;;36.85;;
73693;SDS011;61997;53.974;11.670;2023-03-12T15:21:47;71.70;;;33.90;;
73693;SDS011;61997;53.974;11.670;2023-03-12T15:24:13;71.57;;;35.20;;
73693;SDS011;61997;53.974;11.670;2023-03-12T15:26:39;64.00;;;32.70;;
73693;SDS011;61997;53.974;11.670;2023-03-12T15:29:22;65.65;;;32.97;;
73693;SDS011;61997;53.974;11.670;2023-03-12T15:31:55;61.05;;;31.63;;
73693;SDS011;61997;53.974;11.670;2023-03-12T15:34:29;61.72;;;32.40;;
73693;SDS011;61997;53.974;11.670;2023-03-12T15:37:00;61.03;;;30.48;;
73693;SDS011;61997;53.974;11.670;2023-03-12T15:41:54;60.53;;;29.70;;
73693;SDS011;61997;53.974;11.670;2023-03-12T15:44:24;57.67;;;29.10;;
73693;SDS011;61997;53.974;11.670;2023-03-12T15:46:52;56.55;;;28.48;;
73693;SDS011;61997;53.974;11.670;2023-03-12T15:49:21;56.90;;;31.90;;
73693;SDS011;61997;53.974;11.670;2023-03-12T15:52:03;56.65;;;29.08;;
73693;SDS011;61997;53.974;11.670;2023-03-12T15:54:31;52.45;;;27.17;;
73693;SDS011;61997;53.974;11.670;2023-03-12T16:05:35;51.17;;;26.20;;
73693;SDS011;61997;53.974;11.670;2023-03-12T16:08:10;56.35;;;28.20;;
73693;SDS011;61997;53.974;11.670;2023-03-12T16:10:37;56.15;;;27.75;;
73693;SDS011;61997;53.974;11.670;2023-03-12T16:13:03;55.40;;;28.15;;
73693;SDS011;61997;53.974;11.670;2023-03-12T16:15:29;48.53;;;25.52;;
73693;SDS011;61997;53.974;11.670;2023-03-12T16:17:56;52.70;;;25.67;;
73693;SDS011;61997;53.974;11.670;2023-03-12T16:20:22;53.25;;;27.13;;
73693;SDS011;61997;53.974;11.670;2023-03-12T16:22:47;49.95;;;25.67;;
73693;SDS011;61997;53.974;11.670;2023-03-12T16:25:13;53.13;;;26.90;;
73693;SDS011;61997;53.974;11.670;2023-03-12T16:27:43;49.83;;;25.13;;
73693;SDS011;61997;53.974;11.670;2023-03-12T16:30:14;47.53;;;24.63;;
73693;SDS011;61997;53.974;11.670;2023-03-12T16:32:50;51.58;;;25.20;;
73693;SDS011;61997;53.974;11.670;2023-03-12T16:35:16;46.72;;;23.40;;